Monday, January 21, 2019, 5:40 PM EST
Back to Local

KTAN, Taunton Municipal Airport

Location: East Taunton, MA, United States Lat: 41.883
Local Time: 5:40 PM EST (22:40 GMT) Lon: -71.017
Time Zone: US/Eastern Elev: 42 ft

Show me the last for .
Show Decoded

2019-01-21 16:52 METAR KTAN 212152Z AUTO 29013G22KT 10SM OVC034 M16/M22 A2992 RMK AO2 SNB2059E31
                 SLP131 P0000 T11561217 =
2019-01-21 15:52 METAR KTAN 212052Z AUTO 30010G25KT 6SM HZ FEW029 OVC038 M15/M22 A2988 RMK AO2 PK
                 WND 30026/2026 UPB31E38 SLP119 P0000 60000 T11501217 53026 =
2019-01-21 14:52 METAR KTAN 211952Z AUTO 30013G20KT 7SM BKN034 OVC041 M14/M22 A2983 RMK AO2
                 SLP103 T11441217 =
2019-01-21 13:52 METAR KTAN 211852Z AUTO 27010G24KT 10SM OVC036 M14/M21 A2981 RMK AO2 SLP095
                 T11391211 =
2019-01-21 12:52 METAR KTAN 211752Z AUTO 28014G22KT 10SM OVC038 M14/M22 A2980 RMK AO2 SLP092
                 T11391217 11139 21161 50001 =
2019-01-21 11:52 METAR KTAN 211652Z AUTO 28014G22KT 10SM OVC032 M14/M22 A2981 RMK AO2 PK WND
                 28026/1631 SLP094 T11441222 =
2019-01-21 10:52 METAR KTAN 211552Z AUTO 27014G26KT 10SM CLR M14/M22 A2982 RMK AO2 PK WND
                 26026/1552 SLP098 T11441222 =
2019-01-21 09:52 METAR KTAN 211452Z AUTO 30009G22KT 260V330 10SM CLR M15/M23 A2980 RMK AO2 SLP092
                 T11501228 51030 =
2019-01-21 08:52 METAR KTAN 211352Z AUTO 29014G21KT 10SM CLR M16/M23 A2978 RMK AO2 SLP084
                 T11611233 =
2019-01-21 07:52 METAR KTAN 211252Z AUTO 28010G20KT 10SM CLR M16/M23 A2974 RMK AO2 SLP070
                 T11611228 =
2019-01-21 06:52 METAR KTAN 211152Z AUTO 28010G19KT 10SM CLR M16/M23 A2971 RMK AO2 SLP060 70126
                 T11611228 11133 21161 53028 =
2019-01-21 05:52 METAR KTAN 211052Z AUTO 28011G18KT 10SM CLR M16/M22 A2967 RMK AO2 SLP048
                 T11561217 =
2019-01-21 04:52 METAR KTAN 210952Z AUTO 28011G17KT 10SM CLR M15/M21 A2965 RMK AO2 PK WND
                 29026/0910 SLP039 T11501211 =
2019-01-21 03:52 METAR KTAN 210852Z AUTO 29011G24KT 10SM CLR M14/M21 A2963 RMK AO2 PK WND
                 32026/0757 SLP032 T11441211 51022 =
2019-01-21 02:52 METAR KTAN 210752Z AUTO 29012G21KT 10SM CLR M14/M21 A2961 RMK AO2 SLP027
                 T11391206 =
2019-01-21 01:52 METAR KTAN 210652Z AUTO 29010G22KT 10SM CLR M14/M21 A2959 RMK AO2 SLP021
                 T11391206 =
2019-01-21 00:52 METAR KTAN 210552Z AUTO 30013G23KT 10SM CLR M13/M19 A2956 RMK AO2 PK WND
                 29028/0529 SLP010 T11331194 11028 21133 51034 =
2019-01-20 23:52 METAR KTAN 210452Z AUTO 31009G23KT 10SM CLR M12/M19 A2954 RMK AO2 SLP003
                 T11221189 400331122 =
2019-01-20 22:52 METAR KTAN 210352Z AUTO 31012G24KT 10SM CLR M11/M17 A2951 RMK AO2 PK WND
                 31027/0329 SLP991 T11061167 =
2019-01-20 21:52 METAR KTAN 210252Z AUTO 30010G20KT 10SM CLR M08/M14 A2946 RMK AO2 PK WND
                 31026/0218 SLP976 T10831139 53043 =
2019-01-20 20:52 METAR KTAN 210152Z AUTO 31014G22KT 10SM FEW045 M06/M12 A2940 RMK AO2 PK WND
                 31027/0113 SLP957 T10611117 =
2019-01-20 20:20 METAR KTAN 210120Z AUTO 32013G27KT 10SM SCT022 M04/M10 A2938 RMK AO2 PK WND
                 31027/0113 T10441100 =
2019-01-20 20:04 METAR KTAN 210104Z AUTO 30012G20KT 10SM BKN024 BKN055 M04/M07 A2937 RMK AO2
                 T10391072 =
2019-01-20 19:52 METAR KTAN 210052Z AUTO 31011G17KT 10SM SCT021 BKN039 BKN055 M03/M07 A2937 RMK
                 AO2 SLP945 T10331072 =
2019-01-20 19:22 METAR KTAN 210022Z AUTO 31008G15KT 10SM FEW017 SCT028 OVC038 M03/M06 A2935 RMK
                 AO2 T10281056 =
2019-01-20 19:03 METAR KTAN 210003Z AUTO 31007G16KT 10SM SCT013 BKN028 OVC036 M03/M06 A2934 RMK
                 AO2 T10281056 =
2019-01-20 18:52 METAR KTAN 202352Z AUTO 31008G14KT 10SM BKN012 BKN028 OVC036 M03/M05 A2933 RMK
                 AO2 SLP933 60017 I6003 T10331050 10022 21044 53031 =
2019-01-20 18:25 METAR KTAN 202325Z AUTO 32009G15KT 10SM OVC010 M03/M06 A2932 RMK AO2 T10331056 =
2019-01-20 17:52 METAR KTAN 202252Z AUTO 31009G18KT 10SM OVC006 M03/M05 A2930 RMK AO2 SLP923
                 I1001 T10331050 =

Support USWX by starting your Amazon purchase here.